KCLL - College Station/East, TX, US

Issued at 1720 UTC 29 May 2020
Updated at 2259 UTC 29 May 2020
Potential Impact None Slight Moderate High
Time2253Z 29/23Z 30/00Z 30/01Z 30/02Z 30/03Z 30/04Z 30/05Z 30/06Z 30/07Z 30/08Z 30/09Z 30/10Z 30/11Z>>
Type OBS PRVL PRVL PRVL PRVL PRVL PRVL PRVL PRVL PRVL PRVL PRVL PRVL PRVL
VIS 10 >6 >6 >6 >6 >6 >6 >6 >6 >6 >6 >6 >6 >6
CIG -- -- -- -- -- -- -- -- -- -- -- -- -- --
Cover CLR SCT SCT SCT SKC SKC SKC SKC SKC SKC SKC SKC SKC SKC
FltCat VFR VFR VFR VFR VFR VFR VFR VFR VFR VFR VFR VFR VFR VFR
WX -- -- -- -- -- -- -- -- -- -- -- -- -- --
WDir 360 10 10 10 20 20 20 20 20 20 20 20 20 20
WSpd 14 12 12 12 5 5 5 5 5 5 5 5 5 5
WGst 19 -- -- -- -- -- -- -- -- -- -- -- -- --
Raw TAF
KCLL 291720Z 2918/3018 01012KT P6SM FEW035 SCT250
  FM300200 02005KT P6SM SKC
  FM301500 05008KT P6SM FEW030 FEW250


Raw METAR
KCLL 292253Z 36014G19KT 10SM CLR 31/14 A3004 RMK AO2 SLP169 T03060144
KCLL 292153Z 02013G19KT 10SM CLR 31/15 A3005 RMK AO2 SLP170 T03110150
KCLL 292053Z 02010KT 10SM CLR 31/16 A3007 RMK AO2 SLP177 T03110161 50001
KCLL 291953Z 02012G17KT 350V060 10SM SCT050 30/17 A3008 RMK AO2 SLP182 T03000167

METAR Board
Radar Display
Forecast Discussion
For situational awareness. Not to be used for flight planning purposes.